Time;durP1;ratioP1;P1;durP2;ratioP2;P2;SDS_P1;SDS_P2;PMS_P1;PMS_P2;Temp;Humidity;BMP_temperature;BMP_pressure;BME280_temperature;BME280_humidity;BME280_pressure;Samples;Min_cycle;Max_cycle;Signal;HPM_P1;HPM_P2
2022/02/20 00:00:55;;;;;;;14.30;8.23;;;;;;;9.02;54.85;101552.00;2097425;28;20189;-72
2022/02/20 00:01:56;;;;;;;12.20;7.60;;;;;;;9.14;54.81;101565.38;2097123;28;20271;-71
2022/02/20 00:02:56;;;;;;;12.20;8.37;;;;;;;9.04;54.82;101557.91;2097394;28;20272;-72
2022/02/20 00:03:59;;;;;;;12.90;8.03;;;;;;;8.89;55.13;101540.56;2097277;28;20193;-72
2022/02/20 00:04:59;;;;;;;13.45;8.93;;;;;;;9.02;54.10;101566.59;2097339;28;20569;-72
2022/02/20 00:06:01;;;;;;;13.60;9.63;;;;;;;8.98;52.18;101560.28;2097004;28;20178;-72
2022/02/20 00:07:01;;;;;;;12.40;8.52;;;;;;;8.96;53.05;101557.13;2097076;28;20193;-72
2022/02/20 00:08:05;;;;;;;13.47;8.90;;;;;;;8.92;53.12;101561.88;2097330;28;20185;-72
2022/02/20 00:09:05;;;;;;;15.63;9.20;;;;;;;8.90;53.44;101564.25;2096342;28;20190;-72
2022/02/20 00:10:07;;;;;;;13.37;9.57;;;;;;;8.88;53.56;101563.09;2097320;28;20240;-72
2022/02/20 00:11:07;;;;;;;16.25;8.80;;;;;;;8.84;52.53;101563.09;2097229;28;20190;-71
2022/02/20 00:12:08;;;;;;;16.63;10.03;;;;;;;8.81;51.41;101563.88;2097366;28;20263;-72
2022/02/20 00:13:09;;;;;;;15.30;9.30;;;;;;;8.66;51.99;101569.84;2097260;28;20189;-72
2022/02/20 00:14:09;;;;;;;14.07;9.97;;;;;;;8.60;52.54;101574.97;2097300;28;20693;-72
2022/02/20 00:15:10;;;;;;;13.07;8.63;;;;;;;8.60;53.25;101569.44;2097305;28;20194;-72
2022/02/20 00:16:11;;;;;;;13.60;9.03;;;;;;;8.59;54.13;101572.59;2096436;28;20186;-72
2022/02/20 00:17:11;;;;;;;17.93;9.03;;;;;;;8.59;52.88;101581.69;2097081;28;20188;-72
2022/02/20 00:18:11;;;;;;;14.57;9.03;;;;;;;8.59;53.17;101580.88;2097239;28;20236;-72
2022/02/20 00:19:12;;;;;;;14.17;8.57;;;;;;;8.50;53.99;101566.69;2087418;28;20280;-72
2022/02/20 00:20:12;;;;;;;15.63;8.83;;;;;;;8.57;53.15;101581.25;2088457;28;20216;-72
2022/02/20 00:21:13;;;;;;;15.77;9.27;;;;;;;8.58;53.00;101574.56;2097252;28;20623;-72
2022/02/20 00:22:13;;;;;;;12.90;8.47;;;;;;;8.55;53.66;101567.06;2097140;28;20219;-72
2022/02/20 00:23:15;;;;;;;15.37;10.13;;;;;;;8.55;53.65;101563.50;2097106;28;20195;-72
2022/02/20 00:24:16;;;;;;;15.40;9.05;;;;;;;8.55;52.66;101563.50;2097329;28;20183;-72
2022/02/20 00:25:17;;;;;;;16.73;9.07;;;;;;;8.55;53.00;101567.06;2097131;28;20191;-72
2022/02/20 00:26:18;;;;;;;12.02;8.70;;;;;;;8.57;53.18;101575.75;2096663;28;20188;-72
2022/02/20 00:27:18;;;;;;;14.40;9.37;;;;;;;8.13;53.15;101492.50;2097214;28;20188;-71
2022/02/20 00:28:19;;;;;;;16.50;9.60;;;;;;;8.38;52.18;101540.25;2097413;28;20218;-72
2022/02/20 00:29:19;;;;;;;15.70;9.37;;;;;;;8.35;53.34;101559.59;2096258;28;20275;-72
2022/02/20 00:30:20;;;;;;;12.73;8.70;;;;;;;8.55;53.36;101574.56;2088122;28;20196;-71
2022/02/20 00:31:21;;;;;;;13.93;7.97;;;;;;;8.54;53.64;101576.53;2088226;28;20184;-72
2022/02/20 00:32:21;;;;;;;12.40;7.80;;;;;;;7.99;53.70;101483.44;2097250;28;20196;-72
2022/02/20 00:33:22;;;;;;;10.97;7.43;;;;;;;8.58;53.87;101576.53;2097257;28;20673;-71
2022/02/20 00:34:23;;;;;;;14.73;8.73;;;;;;;8.61;53.17;101584.03;2097150;28;20218;-72
2022/02/20 00:35:23;;;;;;;13.43;9.13;;;;;;;8.58;53.45;101580.09;2097216;28;20188;-72
2022/02/20 00:36:23;;;;;;;12.90;9.00;;;;;;;8.59;53.33;101573.38;2096457;28;20233;-71
2022/02/20 00:37:24;;;;;;;15.13;8.80;;;;;;;8.61;53.47;101575.75;2097145;28;20190;-72
2022/02/20 00:38:24;;;;;;;12.77;8.80;;;;;;;8.61;52.91;101579.28;2097311;28;20646;-72
2022/02/20 00:39:25;;;;;;;13.33;8.97;;;;;;;8.60;53.56;101587.97;2096178;28;20268;-72
2022/02/20 00:40:27;;;;;;;13.93;8.50;;;;;;;8.48;53.16;101564.31;2097387;28;20176;-71
2022/02/20 00:41:27;;;;;;;14.65;8.50;;;;;;;8.58;53.81;101584.81;2096948;28;20787;-72
2022/02/20 00:42:28;;;;;;;15.67;9.20;;;;;;;8.59;54.03;101586.41;2096688;28;20589;-72
2022/02/20 00:43:29;;;;;;;16.33;8.63;;;;;;;8.61;53.69;101589.56;2096989;28;20191;-71
2022/02/20 00:44:29;;;;;;;14.00;8.83;;;;;;;8.61;53.90;101584.81;2097274;28;20901;-72
2022/02/20 00:45:30;;;;;;;13.27;9.13;;;;;;;8.35;53.54;101574.16;2097018;28;20253;-72
2022/02/20 00:46:31;;;;;;;13.53;8.00;;;;;;;8.11;54.18;101541.78;2087534;28;20571;-72
2022/02/20 00:47:31;;;;;;;13.00;8.67;;;;;;;8.56;54.30;101593.50;2088202;28;20191;-72
2022/02/20 00:48:32;;;;;;;14.23;8.00;;;;;;;8.57;54.25;101594.31;2095139;28;20608;-72
2022/02/20 00:49:33;;;;;;;11.37;7.87;;;;;;;8.50;54.77;101599.84;2096217;28;20187;-72
2022/02/20 00:50:33;;;;;;;12.73;7.93;;;;;;;8.48;55.21;101596.66;2097287;28;20258;-72
2022/02/20 00:51:35;;;;;;;13.60;8.00;;;;;;;8.48;54.43;101597.47;2096971;28;20187;-72
2022/02/20 00:52:35;;;;;;;14.20;8.70;;;;;;;8.53;54.29;101599.84;2096994;28;20325;-72
2022/02/20 00:53:36;;;;;;;12.60;7.73;;;;;;;8.50;54.81;101597.09;2097010;28;20200;-72
2022/02/20 00:54:36;;;;;;;12.70;7.23;;;;;;;8.52;55.65;101601.03;2097151;28;20207;-72
2022/02/20 00:55:37;;;;;;;11.00;7.37;;;;;;;8.47;55.86;101595.09;2097085;28;20238;-72
2022/02/20 00:56:38;;;;;;;12.90;8.00;;;;;;;7.65;55.31;101465.66;2096485;28;20270;-72
2022/02/20 00:57:39;;;;;;;16.25;8.57;;;;;;;8.52;55.07;101603.78;2097567;28;20256;-72
2022/02/20 00:58:39;;;;;;;13.47;8.00;;;;;;;7.62;55.24;101469.19;2098779;28;20288;-71
2022/02/20 00:59:40;;;;;;;11.00;7.87;;;;;;;8.51;55.25;101604.19;2097918;28;20317;-72
2022/02/20 01:00:40;;;;;;;15.10;9.00;;;;;;;8.43;55.40;101586.81;2098714;28;20183;-72
2022/02/20 01:01:41;;;;;;;14.23;8.30;;;;;;;8.25;55.39;101555.63;2098790;28;20213;-72
2022/02/20 01:02:42;;;;;;;15.23;7.97;;;;;;;8.52;55.08;101600.22;2098839;28;20266;-72
2022/02/20 01:03:43;;;;;;;12.20;7.97;;;;;;;8.50;55.35;101594.31;2098574;28;20433;-72
2022/02/20 01:04:43;;;;;;;11.67;6.90;;;;;;;8.48;54.62;101593.91;2089889;28;20220;-71
2022/02/20 01:05:44;;;;;;;12.73;8.07;;;;;;;8.51;54.43;101596.66;2089690;28;20717;-72
2022/02/20 01:06:44;;;;;;;12.17;6.97;;;;;;;8.48;55.50;101602.19;2097983;28;20193;-72
2022/02/20 01:07:45;;;;;;;10.73;5.90;;;;;;;8.47;54.71;101604.19;2098682;28;20219;-72
2022/02/20 01:08:45;;;;;;;15.30;7.47;;;;;;;8.52;54.13;101605.75;2098832;28;20605;-72
2022/02/20 01:09:46;;;;;;;9.80;6.00;;;;;;;8.08;53.13;101552.81;2097758;28;20252;-72
2022/02/20 01:10:47;;;;;;;9.70;5.73;;;;;;;8.60;53.50;101608.13;2098852;28;20303;-71
2022/02/20 01:11:48;;;;;;;11.57;5.70;;;;;;;8.64;52.76;101608.91;2098839;28;20272;-72
2022/02/20 01:12:49;;;;;;;11.87;7.40;;;;;;;8.13;52.95;101531.16;2098701;28;20184;-72
2022/02/20 01:13:49;;;;;;;10.38;6.38;;;;;;;8.71;52.89;101608.13;2098554;28;20218;-72
2022/02/20 01:14:50;;;;;;;11.87;7.50;;;;;;;8.75;53.21;101606.13;2098308;28;20223;-72
2022/02/20 01:15:50;;;;;;;9.37;6.37;;;;;;;8.02;53.25;101504.72;2098688;28;20187;-72
2022/02/20 01:16:51;;;;;;;11.37;7.30;;;;;;;8.77;53.38;101599.00;2097880;28;20673;-72
2022/02/20 01:17:51;;;;;;;10.73;6.50;;;;;;;8.77;53.20;101598.25;2098619;28;20215;-72
2022/02/20 01:18:52;;;;;;;9.83;5.83;;;;;;;8.78;52.74;101605.34;2098423;28;20262;-72
2022/02/20 01:19:53;;;;;;;12.93;7.77;;;;;;;7.69;52.77;101428.59;2098119;28;20722;-72
2022/02/20 01:20:54;;;;;;;11.87;7.17;;;;;;;8.24;53.67;101500.78;2098610;28;20187;-72
2022/02/20 01:21:54;;;;;;;11.70;7.47;;;;;;;8.63;53.64;101567.84;2098466;28;20222;-72
2022/02/20 01:22:55;;;;;;;10.17;6.47;;;;;;;8.85;53.22;101597.84;2098610;28;20275;-72
2022/02/20 01:23:55;;;;;;;10.53;7.00;;;;;;;8.88;53.30;101594.28;2098591;28;20188;-72
2022/02/20 01:24:56;;;;;;;10.83;6.17;;;;;;;8.11;52.85;101483.81;2098646;28;20179;-72
2022/02/20 01:25:56;;;;;;;11.57;6.17;;;;;;;8.76;52.49;101569.81;2098480;28;20642;-72
2022/02/20 01:26:57;;;;;;;10.17;6.43;;;;;;;8.84;52.95;101578.88;2098142;28;20287;-72
2022/02/20 01:27:58;;;;;;;10.97;7.43;;;;;;;7.82;53.33;101417.97;2098554;28;20195;-72
2022/02/20 01:28:58;;;;;;;10.83;6.70;;;;;;;7.91;53.09;101423.88;2097765;28;20580;-72
2022/02/20 01:29:59;;;;;;;9.43;5.63;;;;;;;8.90;52.60;101580.84;2098471;28;20225;-72
2022/02/20 01:30:59;;;;;;;8.40;5.30;;;;;;;8.88;52.02;101582.44;2098439;28;20287;-72
2022/02/20 01:32:00;;;;;;;10.57;5.30;;;;;;;8.51;51.68;101519.31;2098639;28;20187;-72
2022/02/20 01:33:00;;;;;;;9.57;5.20;;;;;;;8.93;51.77;101573.72;2098485;28;20197;-72
2022/02/20 01:34:01;;;;;;;9.03;5.50;;;;;;;8.70;51.65;101532.72;2098444;28;20204;-72
2022/02/20 01:35:02;;;;;;;8.73;6.10;;;;;;;8.87;52.38;101561.50;2098359;28;20232;-72
2022/02/20 01:36:03;;;;;;;8.50;5.22;;;;;;;8.23;53.18;101461.34;2097776;28;20188;-72
2022/02/20 01:37:04;;;;;;;11.37;5.90;;;;;;;8.94;53.49;101564.25;2098261;28;20213;-72
2022/02/20 01:38:04;;;;;;;9.33;6.03;;;;;;;8.98;53.82;101565.81;2098592;28;20182;-72
2022/02/20 01:39:05;;;;;;;11.63;6.40;;;;;;;8.96;54.00;101562.66;2097614;28;20279;-72
2022/02/20 01:40:06;;;;;;;10.33;6.07;;;;;;;8.87;55.12;101565.03;2098677;28;20266;-72
2022/02/20 01:41:07;;;;;;;9.30;5.90;;;;;;;8.61;55.99;101553.66;2098153;28;20180;-71
2022/02/20 01:42:07;;;;;;;11.40;6.20;;;;;;;8.69;56.73;101560.72;2098496;28;20445;-72
2022/02/20 01:43:10;;;;;;;11.93;5.93;;;;;;;8.70;57.10;101559.53;2098377;28;20195;-72
2022/02/20 01:44:11;;;;;;;11.25;5.97;;;;;;;7.94;57.95;101437.66;2098479;28;20211;-72
2022/02/20 01:45:13;;;;;;;11.57;6.30;;;;;;;8.77;57.70;101554.78;2098211;28;20184;-72
2022/02/20 01:46:13;;;;;;;9.32;5.60;;;;;;;8.76;57.05;101555.97;2097785;28;20187;-72
2022/02/20 01:47:15;;;;;;;9.23;5.47;;;;;;;8.77;57.37;101559.56;2098363;28;20657;-72
2022/02/20 01:48:16;;;;;;;10.68;5.28;;;;;;;8.75;57.38;101570.19;2097993;28;20187;-72
2022/02/20 01:49:19;;;;;;;11.03;5.83;;;;;;;8.75;57.60;101565.47;2088520;28;20197;-72
2022/02/20 01:50:20;;;;;;;11.40;5.70;;;;;;;8.77;57.47;101567.84;2089804;28;20753;-72
2022/02/20 01:51:20;;;;;;;10.05;5.65;;;;;;;8.76;57.23;101569.81;2098337;28;20191;-72
2022/02/20 01:52:22;;;;;;;8.50;5.57;;;;;;;8.80;57.59;101562.31;2098472;28;20215;-72
2022/02/20 01:53:23;;;;;;;8.45;5.35;;;;;;;8.75;56.98;101568.22;2089325;28;20187;-72
2022/02/20 01:54:23;;;;;;;9.90;5.47;;;;;;;8.60;57.35;101552.84;2089489;28;20188;-72
2022/02/20 01:55:24;;;;;;;10.27;5.80;;;;;;;8.52;59.38;101567.06;2098215;28;20188;-72
2022/02/20 01:56:24;;;;;;;8.70;5.60;;;;;;;8.56;59.94;101570.63;2097825;28;20190;-72
2022/02/20 01:57:25;;;;;;;12.00;5.90;;;;;;;8.62;58.92;101574.56;2098197;28;20207;-72
2022/02/20 01:58:25;;;;;;;9.13;5.60;;;;;;;8.62;59.15;101574.56;2089373;28;20240;-72
2022/02/20 01:59:26;;;;;;;10.30;5.57;;;;;;;8.64;59.01;101566.66;2088473;28;20184;-72
2022/02/20 02:00:27;;;;;;;12.30;5.90;;;;;;;8.65;59.06;101568.22;2098488;28;20580;-72
2022/02/20 02:01:27;;;;;;;9.77;5.67;;;;;;;8.29;58.90;101509.47;2098229;28;20699;-71
2022/02/20 02:02:28;;;;;;;9.80;5.97;;;;;;;8.65;59.45;101566.28;2098526;28;20684;-72
2022/02/20 02:03:28;;;;;;;8.63;5.40;;;;;;;8.64;60.02;101564.69;2098104;28;20185;-72
2022/02/20 02:04:29;;;;;;;11.67;5.47;;;;;;;8.65;60.17;101560.75;2098482;28;20184;-71
2022/02/20 02:05:30;;;;;;;11.50;5.30;;;;;;;8.60;59.63;101552.84;2098116;28;20187;-72
2022/02/20 02:06:31;;;;;;;8.68;5.20;;;;;;;8.64;60.26;101550.88;2097601;28;20183;-72
2022/02/20 02:07:32;;;;;;;11.23;5.65;;;;;;;8.62;59.31;101563.50;2089075;28;20191;-72
2022/02/20 02:08:35;;;;;;;8.43;5.50;;;;;;;8.56;60.15;101559.59;2089441;28;20187;-72
2022/02/20 02:09:35;;;;;;;10.25;5.32;;;;;;;8.20;59.87;101503.56;2096442;28;20188;-72
2022/02/20 02:10:36;;;;;;;8.10;5.40;;;;;;;8.42;59.53;101535.53;2098267;28;20684;-72
2022/02/20 02:11:37;;;;;;;8.70;5.47;;;;;;;8.55;59.92;101553.25;2098117;28;20188;-72
2022/02/20 02:12:38;;;;;;;9.48;5.32;;;;;;;7.99;59.52;101461.34;2098353;28;20688;-72
2022/02/20 02:13:39;;;;;;;10.67;5.70;;;;;;;8.19;58.98;101509.44;2098256;28;20609;-72
2022/02/20 02:15:12;;;;;;;9.82;5.55;;;;;;;8.59;58.79;101564.28;2098167;28;20223;-72
2022/02/20 02:16:13;;;;;;;8.35;5.07;;;;;;;8.61;58.31;101562.72;2063485;28;20190;-72
2022/02/20 02:17:13;;;;;;;9.47;5.53;;;;;;;8.58;58.83;101566.28;2087747;28;20191;-72
2022/02/20 02:18:13;;;;;;;9.20;5.57;;;;;;;8.59;58.37;101578.91;2098226;28;20184;-72
2022/02/20 02:19:14;;;;;;;7.97;4.93;;;;;;;8.39;58.82;101547.34;2097135;28;20646;-72
2022/02/20 02:20:14;;;;;;;8.57;5.43;;;;;;;8.55;58.13;101578.13;2098260;28;20542;-72
2022/02/20 02:21:15;;;;;;;8.07;5.13;;;;;;;8.28;58.21;101540.25;2098135;28;20191;-72
2022/02/20 02:22:24;;;;;;;9.10;5.77;;;;;;;8.55;58.26;101578.13;2098294;28;20176;-72
2022/02/20 02:23:25;;;;;;;8.38;5.57;;;;;;;8.57;58.39;101575.75;2098052;28;20267;-72
2022/02/20 02:24:26;;;;;;;10.13;5.30;;;;;;;8.32;58.41;101533.56;2098126;28;20180;-72
2022/02/20 02:25:30;;;;;;;11.07;5.57;;;;;;;8.59;58.76;101586.41;2089043;28;20226;-72
2022/02/20 02:26:32;;;;;;;9.00;5.70;;;;;;;8.59;58.20;101584.44;2089203;28;20219;-72
2022/02/20 02:27:32;;;;;;;10.63;5.50;;;;;;;7.76;57.78;101453.47;2097987;28;20742;-72
2022/02/20 02:28:34;;;;;;;8.57;5.80;;;;;;;8.57;57.83;101595.06;2098240;28;20618;-71
2022/02/20 02:29:35;;;;;;;12.27;5.72;;;;;;;8.53;57.97;101579.69;2088095;28;20685;-72
2022/02/20 02:30:35;;;;;;;9.40;5.40;;;;;;;8.59;58.10;101587.19;2089325;28;20559;-72
2022/02/20 02:31:36;;;;;;;9.90;5.90;;;;;;;8.47;57.78;101579.31;2097884;28;20637;-72
2022/02/20 02:32:36;;;;;;;10.63;5.63;;;;;;;8.57;57.37;101617.19;2089132;28;20286;-72
2022/02/20 02:33:37;;;;;;;10.20;5.33;;;;;;;8.40;57.57;101561.97;2089023;28;20184;-72
2022/02/20 02:34:42;;;;;;;9.73;6.10;;;;;;;8.26;57.37;101534.34;2097949;28;20211;-72
2022/02/20 02:35:42;;;;;;;9.88;6.05;;;;;;;8.63;56.98;101590.75;2098143;28;20175;-72
2022/02/20 02:36:52;;;;;;;10.97;6.07;;;;;;;7.21;56.77;101371.41;2097213;28;20649;-72
2022/02/20 02:37:53;;;;;;;10.57;6.28;;;;;;;8.59;56.97;101583.63;2097992;28;20625;-72
2022/02/20 02:38:54;;;;;;;12.85;8.75;;;;;;;8.58;57.32;101582.06;2097582;28;20188;-72
2022/02/20 02:39:54;;;;;;;11.13;6.90;;;;;;;8.36;57.46;101550.88;2097645;28;20191;-72
2022/02/20 02:40:57;;;;;;;8.87;5.60;;;;;;;8.59;57.15;101586.41;2088922;28;20275;-71
2022/02/20 02:41:58;;;;;;;10.88;6.25;;;;;;;7.88;57.48;101490.88;2089299;28;20188;-71
2022/02/20 02:42:59;;;;;;;10.93;6.90;;;;;;;8.58;57.24;101624.31;2097921;28;20196;-72
2022/02/20 02:44:00;;;;;;;10.63;6.57;;;;;;;8.21;57.46;101554.81;2089049;28;20268;-72
2022/02/20 02:45:00;;;;;;;8.33;5.33;;;;;;;8.42;56.92;101570.63;2088976;28;20600;-71
2022/02/20 02:46:02;;;;;;;9.13;5.67;;;;;;;8.59;56.79;101601.00;2097325;28;20269;-72
2022/02/20 02:47:03;;;;;;;7.13;4.90;;;;;;;8.55;56.11;101602.19;2088739;28;20192;-71
2022/02/20 02:48:03;;;;;;;9.57;4.60;;;;;;;8.54;55.52;101598.66;2089033;28;20183;-72
2022/02/20 02:49:04;;;;;;;10.33;5.47;;;;;;;8.14;56.86;101541.00;2096884;28;20195;-72
2022/02/20 02:50:05;;;;;;;8.80;5.13;;;;;;;8.44;56.28;101590.34;2097987;28;20326;-72
2022/02/20 02:51:05;;;;;;;9.97;5.07;;;;;;;8.53;55.84;101605.38;2098017;28;20270;-71
2022/02/20 02:52:06;;;;;;;8.43;5.47;;;;;;;8.57;56.51;101610.88;2088955;28;20740;-72
2022/02/20 02:53:07;;;;;;;12.17;5.90;;;;;;;8.58;55.80;101616.03;2089007;28;20180;-72
2022/02/20 02:54:09;;;;;;;9.73;6.13;;;;;;;8.45;55.06;101591.94;2097826;28;20424;-72
2022/02/20 02:55:10;;;;;;;11.30;6.35;;;;;;;8.51;55.97;101598.66;2097719;28;20270;-72
2022/02/20 02:56:10;;;;;;;9.63;6.63;;;;;;;8.60;55.35;101621.13;2097263;28;20187;-72
2022/02/20 02:57:11;;;;;;;10.60;6.93;;;;;;;8.57;55.18;101619.19;2097699;28;20259;-72
2022/02/20 02:58:19;;;;;;;8.37;5.60;;;;;;;8.66;55.95;101628.63;2097803;28;20282;-72
2022/02/20 02:59:19;;;;;;;9.68;6.10;;;;;;;8.72;54.97;101624.28;2096953;28;20317;-72
2022/02/20 03:00:20;;;;;;;11.17;6.00;;;;;;;8.79;55.64;101629.03;2097800;28;20241;-72
2022/02/20 03:01:20;;;;;;;10.47;6.23;;;;;;;8.85;55.82;101617.19;2097802;28;20198;-72
2022/02/20 03:02:21;;;;;;;10.47;5.50;;;;;;;7.78;55.77;101451.09;2097905;28;20329;-72
2022/02/20 03:03:22;;;;;;;9.57;5.87;;;;;;;8.88;55.29;101626.66;2097916;28;20186;-72
2022/02/20 03:04:23;;;;;;;10.10;5.80;;;;;;;8.93;55.81;101626.25;2097906;28;20279;-72
2022/02/20 03:05:23;;;;;;;10.95;6.30;;;;;;;8.93;55.59;101626.25;2097760;28;20176;-72
2022/02/20 03:06:25;;;;;;;9.97;5.93;;;;;;;8.95;55.32;101627.44;2097172;28;20274;-72
2022/02/20 03:07:25;;;;;;;11.45;6.10;;;;;;;8.96;55.03;101622.72;2097633;28;20180;-72
2022/02/20 03:08:27;;;;;;;12.60;6.17;;;;;;;8.97;54.79;101641.66;2097898;28;20261;-72
2022/02/20 03:09:27;;;;;;;10.93;6.53;;;;;;;8.51;54.55;101557.97;2096865;28;20187;-72
2022/02/20 03:10:29;;;;;;;12.47;6.40;;;;;;;9.01;54.74;101634.13;2097828;28;20184;-72
2022/02/20 03:11:29;;;;;;;10.23;6.13;;;;;;;9.01;54.43;101642.44;2097637;28;20657;-72
2022/02/20 03:12:30;;;;;;;12.30;6.77;;;;;;;9.01;54.04;101663.75;2097837;28;20617;-72
2022/02/20 03:13:32;;;;;;;12.03;6.80;;;;;;;8.21;53.84;101504.34;2097553;28;20183;-72
2022/02/20 03:14:33;;;;;;;12.98;7.25;;;;;;;8.56;53.67;101573.41;2097742;28;20233;-72
2022/02/20 03:15:33;;;;;;;11.43;7.03;;;;;;;9.05;53.27;101634.13;2097566;28;20199;-72
2022/02/20 03:16:34;;;;;;;13.50;7.27;;;;;;;9.07;53.50;101634.53;2096656;28;20208;-72
2022/02/20 03:17:35;;;;;;;12.87;7.23;;;;;;;9.02;52.97;101619.13;2097568;28;20295;-72
2022/02/20 03:18:35;;;;;;;11.80;7.03;;;;;;;8.41;53.04;101528.41;2097775;28;20290;-72
2022/02/20 03:19:36;;;;;;;10.60;7.00;;;;;;;9.01;52.78;101602.94;2096578;28;20196;-72
2022/02/20 03:20:37;;;;;;;10.10;6.83;;;;;;;9.23;53.16;101626.59;2088677;28;20244;-72
2022/02/20 03:21:37;;;;;;;11.70;6.97;;;;;;;8.77;53.02;101542.97;2087733;28;20633;-72
2022/02/20 03:22:38;;;;;;;12.27;6.17;;;;;;;9.32;53.13;101624.22;2097785;28;20188;-72
2022/02/20 03:23:38;;;;;;;14.60;7.07;;;;;;;9.33;53.05;101617.47;2097560;28;20191;-72
2022/02/20 03:24:39;;;;;;;12.43;6.97;;;;;;;9.29;53.29;101617.50;2097679;28;20192;-72
2022/02/20 03:25:40;;;;;;;12.37;6.87;;;;;;;9.36;53.56;101622.19;2097560;28;20205;-72
2022/02/20 03:26:40;;;;;;;8.43;6.00;;;;;;;9.41;53.20;101616.25;2097103;28;20208;-72
2022/02/20 03:27:40;;;;;;;12.07;7.03;;;;;;;9.31;53.31;101617.88;2097650;28;20188;-72
2022/02/20 03:28:41;;;;;;;10.73;6.90;;;;;;;9.24;53.04;101592.22;2097457;28;20234;-72
2022/02/20 03:29:41;;;;;;;10.40;6.53;;;;;;;9.50;52.79;101622.97;2096747;28;20187;-71
2022/02/20 03:30:42;;;;;;;7.50;5.67;;;;;;;9.55;53.48;101617.00;2097538;28;20319;-72
2022/02/20 03:31:43;;;;;;;11.20;6.43;;;;;;;9.60;53.03;101619.38;2097611;28;20184;-72
2022/02/20 03:32:43;;;;;;;9.50;6.40;;;;;;;9.60;52.62;101619.38;2097676;28;20670;-72
2022/02/20 03:33:44;;;;;;;9.23;6.20;;;;;;;9.51;52.80;101612.66;2097580;28;20271;-72
2022/02/20 03:34:44;;;;;;;12.63;6.97;;;;;;;9.64;53.15;101622.13;2088496;28;20212;-72
2022/02/20 03:35:45;;;;;;;11.93;6.47;;;;;;;9.64;52.76;101619.34;2080431;28;20718;-72
2022/02/20 03:36:45;;;;;;;10.10;6.53;;;;;;;9.66;52.84;101625.25;2087870;28;20198;-72
2022/02/20 03:37:46;;;;;;;10.40;6.57;;;;;;;9.73;52.98;101628.78;2092405;28;20668;-71
2022/02/20 03:38:46;;;;;;;9.20;6.17;;;;;;;9.74;52.51;101633.13;2097615;28;20280;-72
2022/02/20 03:39:47;;;;;;;10.60;5.83;;;;;;;9.71;52.33;101616.53;2096665;28;20267;-72
2022/02/20 03:40:47;;;;;;;11.63;6.13;;;;;;;9.54;52.65;101586.97;2097656;28;20199;-71
2022/02/20 03:41:48;;;;;;;8.70;5.53;;;;;;;8.43;52.65;101412.78;2097288;28;20769;-72
2022/02/20 03:42:49;;;;;;;9.63;6.20;;;;;;;9.11;52.10;101514.44;2097429;28;20273;-72
2022/02/20 03:43:49;;;;;;;10.40;6.53;;;;;;;9.05;52.17;101488.38;2097454;28;20222;-72
2022/02/20 03:44:50;;;;;;;11.83;6.73;;;;;;;9.85;52.08;101617.25;2097520;28;20183;-72
2022/02/20 03:45:50;;;;;;;9.60;5.70;;;;;;;9.20;52.01;101506.50;2097344;28;20192;-72
2022/02/20 03:46:51;;;;;;;12.10;6.43;;;;;;;9.95;51.89;101623.94;2096840;28;20183;-72
2022/02/20 03:47:51;;;;;;;10.60;6.07;;;;;;;9.95;51.97;101621.94;2097382;28;20180;-72
2022/02/20 03:48:52;;;;;;;11.53;6.63;;;;;;;9.98;51.87;101631.41;2096938;28;20187;-72
2022/02/20 03:49:52;;;;;;;10.47;6.27;;;;;;;9.96;51.93;101634.63;2096733;28;20188;-72
2022/02/20 03:50:53;;;;;;;11.80;6.53;;;;;;;9.96;51.82;101631.84;2097443;28;20221;-72
2022/02/20 03:51:53;;;;;;;11.27;6.40;;;;;;;9.93;52.03;101634.59;2097346;28;20180;-72
2022/02/20 03:52:54;;;;;;;10.53;6.53;;;;;;;9.87;52.79;101641.75;2097523;28;20194;-72
2022/02/20 03:53:54;;;;;;;14.93;5.73;;;;;;;9.86;52.74;101649.31;2097420;28;20198;-72
2022/02/20 03:54:55;;;;;;;11.40;6.10;;;;;;;9.88;53.06;101646.91;2097276;28;20210;-71
2022/02/20 03:55:55;;;;;;;10.50;6.00;;;;;;;9.80;52.55;101647.34;2097518;28;20195;-72
2022/02/20 03:56:56;;;;;;;9.93;6.00;;;;;;;9.75;52.37;101642.22;2098992;28;20189;-72
2022/02/20 03:57:57;;;;;;;9.83;6.20;;;;;;;9.75;52.58;101643.03;2103290;28;20188;-72
2022/02/20 03:58:57;;;;;;;11.02;5.78;;;;;;;9.74;52.67;101644.19;2096712;28;20186;-72
2022/02/20 03:59:59;;;;;;;9.10;5.80;;;;;;;9.82;52.36;101648.53;2097281;28;20184;-72
2022/02/20 04:01:00;;;;;;;8.30;6.22;;;;;;;9.81;52.54;101648.91;2097347;28;20199;-72
2022/02/20 04:02:00;;;;;;;11.77;6.17;;;;;;;9.87;52.13;101653.63;2097423;28;20193;-72
2022/02/20 04:03:01;;;;;;;14.80;6.47;;;;;;;9.83;52.79;101652.06;2097305;28;20354;-72
2022/02/20 04:04:02;;;;;;;10.33;6.53;;;;;;;9.86;52.52;101652.06;2097339;28;20194;-72
2022/02/20 04:05:03;;;;;;;11.67;6.57;;;;;;;8.95;52.42;101511.34;2097338;28;20237;-72
2022/02/20 04:06:04;;;;;;;9.90;6.47;;;;;;;9.89;52.34;101656.78;2096651;28;20202;-72
2022/02/20 04:07:05;;;;;;;12.53;7.10;;;;;;;9.87;52.51;101652.84;2097239;28;20180;-72
2022/02/20 04:08:06;;;;;;;10.93;6.30;;;;;;;9.68;52.39;101628.44;2097363;28;20219;-72
2022/02/20 04:09:07;;;;;;;11.23;6.28;;;;;;;9.87;52.68;101656.41;2096452;28;20180;-72
2022/02/20 04:10:10;;;;;;;10.57;6.47;;;;;;;9.88;52.73;101652.44;2097242;28;20192;-72
2022/02/20 04:11:10;;;;;;;11.98;6.35;;;;;;;9.90;52.34;101660.34;2097290;28;20179;-72
2022/02/20 04:12:11;;;;;;;11.30;6.97;;;;;;;9.88;52.55;101654.41;2097333;28;20270;-71
2022/02/20 04:13:11;;;;;;;11.10;6.50;;;;;;;9.88;52.94;101652.44;2097319;28;20194;-72
2022/02/20 04:14:12;;;;;;;11.27;7.07;;;;;;;9.08;53.07;101525.50;2097335;28;20267;-72
2022/02/20 04:15:13;;;;;;;11.53;6.67;;;;;;;9.75;52.76;101645.78;2097287;28;20188;-72
2022/02/20 04:16:13;;;;;;;10.70;6.55;;;;;;;9.86;52.56;101662.34;2096811;28;20190;-72
2022/02/20 04:17:14;;;;;;;10.33;6.67;;;;;;;9.82;52.95;101656.81;2088050;28;20202;-72
2022/02/20 04:18:15;;;;;;;9.73;6.90;;;;;;;9.77;53.18;101640.63;2088440;28;20180;-72
2022/02/20 04:19:16;;;;;;;11.50;6.68;;;;;;;9.83;53.23;101652.88;2096131;28;20279;-72
2022/02/20 04:20:18;;;;;;;13.20;7.13;;;;;;;9.09;52.76;101558.28;2097427;28;20195;-72
2022/02/20 04:21:19;;;;;;;12.02;7.28;;;;;;;9.52;52.99;101606.75;2097209;28;20199;-72
2022/02/20 04:22:20;;;;;;;11.27;6.87;;;;;;;9.71;53.36;101639.47;2097280;28;20199;-72
2022/02/20 04:23:22;;;;;;;12.23;6.93;;;;;;;9.60;53.39;101635.97;2097276;28;20658;-72
2022/02/20 04:24:22;;;;;;;12.02;7.32;;;;;;;9.71;53.43;101644.22;2097297;28;20223;-72
2022/02/20 04:25:23;;;;;;;12.77;7.60;;;;;;;9.75;53.44;101647.75;2097068;28;20187;-72
2022/02/20 04:26:23;;;;;;;13.73;7.80;;;;;;;9.82;53.43;101643.00;2096673;28;20245;-72
2022/02/20 04:27:24;;;;;;;12.70;7.20;;;;;;;9.44;53.06;101576.72;2097168;28;20191;-72
2022/02/20 04:28:25;;;;;;;12.20;7.90;;;;;;;9.84;53.39;101646.13;2097456;28;20610;-72
2022/02/20 04:29:25;;;;;;;14.13;7.65;;;;;;;9.71;53.27;101635.91;2096514;28;20188;-72
2022/02/20 04:30:26;;;;;;;12.67;7.67;;;;;;;9.84;53.57;101654.44;2097450;28;20213;-72
2022/02/20 04:31:27;;;;;;;10.93;7.13;;;;;;;9.89;53.24;101656.78;2097047;28;20187;-72
2022/02/20 04:32:27;;;;;;;12.37;7.57;;;;;;;9.94;53.15;101661.13;2097106;28;20175;-72
2022/02/20 04:33:28;;;;;;;11.23;6.87;;;;;;;9.45;53.36;101592.94;2097074;28;20203;-72
2022/02/20 04:34:28;;;;;;;10.83;6.73;;;;;;;9.92;53.32;101658.75;2097033;28;20218;-72
2022/02/20 04:35:31;;;;;;;12.27;7.50;;;;;;;9.97;53.67;101655.56;2097200;28;20183;-72
2022/02/20 04:36:35;;;;;;;13.75;7.28;;;;;;;9.94;53.57;101650.06;2096498;28;20629;-72
2022/02/20 04:37:35;;;;;;;10.55;7.50;;;;;;;10.02;53.76;101665.44;2097029;28;20271;-72
2022/02/20 04:38:35;;;;;;;12.50;7.67;;;;;;;10.06;53.36;101669.00;2097322;28;20191;-72
2022/02/20 04:39:36;;;;;;;14.53;7.80;;;;;;;9.95;53.51;101637.78;2096170;28;20629;-72
2022/02/20 04:40:36;;;;;;;14.77;8.67;;;;;;;10.03;53.46;101661.47;2097364;28;20190;-72
2022/02/20 04:41:37;;;;;;;12.47;8.47;;;;;;;10.05;53.85;101659.91;2096886;28;20223;-72
2022/02/20 04:42:37;;;;;;;11.40;7.53;;;;;;;10.12;53.65;101664.63;2097295;28;20196;-72
2022/02/20 04:43:38;;;;;;;12.40;8.53;;;;;;;10.12;53.78;101664.63;2097193;28;20184;-72
2022/02/20 04:44:38;;;;;;;13.60;8.93;;;;;;;10.14;53.60;101656.72;2097374;28;20271;-72